Time;durP1;ratioP1;P1;durP2;ratioP2;P2;SDS_P1;SDS_P2;PMS_P1;PMS_P2;Temp;Humidity;BMP_temperature;BMP_pressure;BME280_temperature;BME280_humidity;BME280_pressure;Samples;Min_cycle;Max_cycle;Signal;HPM_P1;HPM_P2
2022/06/09 00:01:43;;;;;;;1.93;1.50;;;;;;;;;;5076117;28;20483;-70
2022/06/09 00:04:14;;;;;;;1.90;1.70;;;;;;;;;;5075835;28;20466;-70
2022/06/09 00:06:43;;;;;;;1.77;1.43;;;;;;;;;;5076161;28;20454;-70
2022/06/09 00:09:10;;;;;;;3.47;1.50;;;;;;;;;;5076104;28;20458;-70
2022/06/09 00:11:41;;;;;;;2.70;1.60;;;;;;;;;;5075841;28;20463;-70
2022/06/09 00:14:08;;;;;;;2.40;1.60;;;;;;;;;;5075762;28;20824;-70
2022/06/09 00:16:36;;;;;;;3.30;1.90;;;;;;;;;;5076020;28;20454;-70
2022/06/09 00:19:03;;;;;;;3.20;2.23;;;;;;;;;;5076155;28;20451;-70
2022/06/09 00:21:31;;;;;;;3.60;2.40;;;;;;;;;;5075970;28;20586;-70
2022/06/09 00:23:58;;;;;;;2.30;2.03;;;;;;;;;;5075745;28;20498;-70
2022/06/09 00:26:26;;;;;;;4.23;1.70;;;;;;;;;;5075753;28;20463;-70
2022/06/09 00:28:53;;;;;;;3.87;2.10;;;;;;;;;;5075769;28;20530;-70
2022/06/09 00:31:20;;;;;;;2.30;1.90;;;;;;;;;;5075386;28;20474;-70
2022/06/09 00:33:47;;;;;;;2.00;1.70;;;;;;;;;;5075446;28;20451;-71
2022/06/09 00:36:14;;;;;;;5.30;2.53;;;;;;;;;;5075432;28;20844;-70
2022/06/09 00:38:43;;;;;;;3.60;1.60;;;;;;;;;;5075521;28;20454;-70
2022/06/09 00:41:10;;;;;;;3.17;1.90;;;;;;;;;;5075239;28;20494;-70
2022/06/09 00:43:37;;;;;;;3.87;1.70;;;;;;;;;;5075287;28;20444;-70
2022/06/09 00:46:07;;;;;;;4.03;1.60;;;;;;;;;;5075248;28;20448;-70
2022/06/09 00:48:38;;;;;;;2.63;1.70;;;;;;;;;;5075455;28;20955;-70
2022/06/09 00:51:07;;;;;;;2.70;1.97;;;;;;;;;;5075041;28;20886;-71
2022/06/09 00:53:36;;;;;;;3.27;2.07;;;;;;;;;;5075188;28;20933;-70
2022/06/09 00:56:06;;;;;;;1.93;1.63;;;;;;;;;;5074106;28;20453;-70
2022/06/09 00:58:36;;;;;;;4.13;1.77;;;;;;;;;;5075112;28;20455;-70
2022/06/09 01:01:06;;;;;;;2.57;1.80;;;;;;;;;;5074881;28;20468;-70
2022/06/09 01:03:37;;;;;;;2.97;1.87;;;;;;;;;;5074821;28;20504;-70
2022/06/09 01:06:07;;;;;;;3.00;1.93;;;;;;;;;;5075047;28;20448;-70
2022/06/09 01:08:35;;;;;;;3.63;1.90;;;;;;;;;;5074947;28;20458;-70
2022/06/09 01:11:03;;;;;;;3.43;1.63;;;;;;;;;;5074810;28;20821;-70
2022/06/09 01:13:33;;;;;;;2.60;2.03;;;;;;;;;;5074719;28;20485;-70
2022/06/09 01:16:04;;;;;;;2.77;2.10;;;;;;;;;;5074791;28;20455;-70
2022/06/09 01:18:37;;;;;;;2.90;2.00;;;;;;;;;;5074748;28;20451;-70
2022/06/09 01:21:06;;;;;;;2.43;1.50;;;;;;;;;;5074643;28;20468;-70
2022/06/09 01:23:55;;;;;;;13.17;1.43;;;;;;;;;;5074709;28;20929;-70
2022/06/09 01:26:41;;;;;;;3.03;1.47;;;;;;;;;;5074693;28;20822;-70
2022/06/09 01:29:19;;;;;;;2.13;1.60;;;;;;;;;;5074737;28;20459;-70
2022/06/09 01:31:49;;;;;;;1.50;1.10;;;;;;;;;;5074350;28;20475;-70
2022/06/09 01:34:20;;;;;;;2.70;1.70;;;;;;;;;;5074270;28;20458;-70
2022/06/09 01:36:51;;;;;;;3.10;1.57;;;;;;;;;;5074377;28;20462;-70
2022/06/09 01:39:18;;;;;;;3.83;1.57;;;;;;;;;;5074506;28;20451;-70
2022/06/09 01:41:49;;;;;;;2.03;1.40;;;;;;;;;;5074251;28;20491;-70
2022/06/09 01:44:17;;;;;;;1.63;1.30;;;;;;;;;;5073959;28;20456;-70
2022/06/09 01:46:45;;;;;;;2.97;1.50;;;;;;;;;;5074406;28;20952;-70
2022/06/09 01:49:16;;;;;;;4.50;1.90;;;;;;;;;;5074116;28;20463;-70
2022/06/09 01:51:45;;;;;;;2.00;1.67;;;;;;;;;;5073719;28;20477;-70
2022/06/09 01:54:14;;;;;;;5.27;1.30;;;;;;;;;;5073950;28;20447;-70
2022/06/09 01:56:45;;;;;;;2.33;1.57;;;;;;;;;;5073936;28;20459;-70
2022/06/09 01:59:13;;;;;;;1.90;1.37;;;;;;;;;;5073959;28;20451;-70
2022/06/09 02:01:42;;;;;;;2.13;1.60;;;;;;;;;;5073803;28;20490;-70
2022/06/09 02:04:14;;;;;;;3.33;1.50;;;;;;;;;;5073622;28;20964;-70
2022/06/09 02:06:43;;;;;;;2.10;1.83;;;;;;;;;;5073651;28;20501;-70
2022/06/09 02:09:10;;;;;;;2.57;1.50;;;;;;;;;;5073643;28;20452;-70
2022/06/09 02:11:46;;;;;;;1.80;1.43;;;;;;;;;;5073764;28;20479;-70
2022/06/09 02:14:13;;;;;;;2.73;1.90;;;;;;;;;;5073515;28;20458;-70
2022/06/09 02:16:40;;;;;;;4.03;2.50;;;;;;;;;;5073636;28;20823;-70
2022/06/09 02:19:07;;;;;;;2.20;1.70;;;;;;;;;;5073573;28;20443;-70
2022/06/09 02:21:35;;;;;;;2.10;1.80;;;;;;;;;;5073406;28;20467;-70
2022/06/09 02:24:04;;;;;;;1.63;1.30;;;;;;;;;;5073420;28;20459;-70
2022/06/09 02:26:31;;;;;;;2.23;1.40;;;;;;;;;;5073512;28;20455;-70
2022/06/09 02:28:58;;;;;;;2.17;1.90;;;;;;;;;;5073489;28;20952;-70
2022/06/09 02:31:25;;;;;;;2.43;2.10;;;;;;;;;;5073332;28;20478;-70
2022/06/09 02:33:54;;;;;;;2.60;1.33;;;;;;;;;;5073214;28;20467;-70
2022/06/09 02:36:21;;;;;;;2.77;1.70;;;;;;;;;;5073171;28;20460;-70
2022/06/09 02:38:48;;;;;;;4.40;1.47;;;;;;;;;;5073295;28;20462;-70
2022/06/09 02:41:17;;;;;;;1.60;1.20;;;;;;;;;;5073298;28;20837;-70
2022/06/09 02:43:44;;;;;;;1.73;1.40;;;;;;;;;;5072948;28;20490;-70
2022/06/09 02:46:12;;;;;;;1.60;1.23;;;;;;;;;;5073252;28;20460;-70
2022/06/09 02:48:41;;;;;;;3.60;1.50;;;;;;;;;;5073172;28;20459;-70
2022/06/09 02:51:16;;;;;;;2.63;1.63;;;;;;;;;;5072968;28;20475;-70
2022/06/09 02:53:44;;;;;;;1.80;1.20;;;;;;;;;;5073057;28;20451;-70
2022/06/09 02:56:11;;;;;;;2.00;1.40;;;;;;;;;;5072960;28;20462;-70
2022/06/09 02:58:39;;;;;;;2.77;2.10;;;;;;;;;;5073168;28;20940;-70
2022/06/09 03:01:07;;;;;;;2.17;1.33;;;;;;;;;;5072822;28;20475;-70
2022/06/09 03:03:34;;;;;;;6.87;1.70;;;;;;;;;;5072995;28;20588;-70
2022/06/09 03:06:01;;;;;;;1.90;1.70;;;;;;;;;;5072997;28;20448;-70
2022/06/09 03:08:28;;;;;;;8.33;2.63;;;;;;;;;;5072897;28;20470;-70
2022/06/09 03:10:55;;;;;;;3.10;2.00;;;;;;;;;;5072902;28;20471;-70
2022/06/09 03:13:22;;;;;;;3.20;2.77;;;;;;;;;;5072806;28;20517;-70
2022/06/09 03:15:51;;;;;;;2.13;1.63;;;;;;;;;;5072843;28;20455;-70
2022/06/09 03:18:19;;;;;;;2.33;1.27;;;;;;;;;;5072775;28;20461;-70
2022/06/09 03:20:46;;;;;;;1.87;1.47;;;;;;;;;;5077064;28;20463;-70
2022/06/09 03:23:13;;;;;;;3.30;2.10;;;;;;;;;;5076867;28;20487;-70
2022/06/09 03:25:41;;;;;;;1.80;1.60;;;;;;;;;;5076724;28;20462;-70
2022/06/09 03:28:09;;;;;;;3.40;1.90;;;;;;;;;;5076857;28;20509;-70
2022/06/09 03:30:36;;;;;;;2.43;1.53;;;;;;;;;;5076860;28;20482;-70
2022/06/09 03:33:04;;;;;;;2.10;1.67;;;;;;;;;;5076687;28;20451;-70
2022/06/09 03:35:32;;;;;;;2.50;1.67;;;;;;;;;;5076487;28;20455;-70
2022/06/09 03:37:59;;;;;;;2.70;1.57;;;;;;;;;;5076786;28;20447;-70
2022/06/09 03:40:28;;;;;;;3.07;1.80;;;;;;;;;;5076648;28;20852;-70
2022/06/09 03:42:55;;;;;;;3.40;2.10;;;;;;;;;;5076549;28;20596;-70
2022/06/09 03:45:22;;;;;;;2.70;2.10;;;;;;;;;;5076538;28;20455;-70
2022/06/09 03:47:49;;;;;;;4.00;2.00;;;;;;;;;;5076846;28;20455;-70
2022/06/09 03:50:19;;;;;;;3.17;2.53;;;;;;;;;;5076528;28;20999;-70
2022/06/09 03:52:46;;;;;;;3.93;2.70;;;;;;;;;;5076180;28;20451;-70
2022/06/09 03:55:13;;;;;;;2.67;1.90;;;;;;;;;;5076388;28;20937;-70
2022/06/09 03:57:40;;;;;;;2.53;2.10;;;;;;;;;;5076264;28;20458;-70
2022/06/09 04:00:09;;;;;;;6.67;3.10;;;;;;;;;;5076249;28;20498;-70
2022/06/09 04:02:36;;;;;;;5.80;2.80;;;;;;;;;;5076130;28;20495;-70
2022/06/09 04:05:03;;;;;;;3.83;3.40;;;;;;;;;;5076115;28;20447;-70
2022/06/09 04:07:32;;;;;;;3.67;3.37;;;;;;;;;;5076093;28;20808;-70
2022/06/09 04:09:59;;;;;;;4.30;3.50;;;;;;;;;;5075929;28;20451;-70
2022/06/09 04:12:26;;;;;;;4.20;2.90;;;;;;;;;;5076321;28;20474;-70
2022/06/09 04:14:53;;;;;;;4.30;3.90;;;;;;;;;;5076070;28;20940;-70
2022/06/09 04:17:20;;;;;;;4.90;3.97;;;;;;;;;;5076003;28;20447;-70
2022/06/09 04:19:47;;;;;;;9.57;5.77;;;;;;;;;;5075907;28;20447;-70
2022/06/09 04:22:14;;;;;;;3.53;3.23;;;;;;;;;;5075748;28;20483;-70
2022/06/09 04:24:43;;;;;;;3.47;2.87;;;;;;;;;;5075775;28;20967;-69
2022/06/09 04:27:10;;;;;;;3.73;2.93;;;;;;;;;;5075828;28;20462;-69
2022/06/09 04:29:37;;;;;;;3.27;2.97;;;;;;;;;;5075986;28;20462;-70
2022/06/09 04:32:06;;;;;;;3.50;3.20;;;;;;;;;;5075566;28;20475;-70
2022/06/09 04:34:33;;;;;;;4.60;3.90;;;;;;;;;;5075733;28;20460;-70
2022/06/09 04:37:00;;;;;;;8.40;6.50;;;;;;;;;;5075497;28;20463;-70
2022/06/09 04:39:27;;;;;;;6.73;4.60;;;;;;;;;;5075602;28;20450;-70
2022/06/09 04:41:56;;;;;;;5.17;3.33;;;;;;;;;;5075682;28;20472;-70
2022/06/09 04:44:23;;;;;;;4.97;4.33;;;;;;;;;;5075255;28;20491;-70
2022/06/09 04:46:50;;;;;;;6.23;3.97;;;;;;;;;;5075522;28;20801;-70
2022/06/09 04:49:17;;;;;;;4.87;3.03;;;;;;;;;;5075375;28;20459;-70
2022/06/09 04:51:44;;;;;;;4.03;3.63;;;;;;;;;;5075211;28;20479;-70
2022/06/09 04:54:11;;;;;;;5.90;4.07;;;;;;;;;;5075199;28;20443;-70
2022/06/09 04:56:38;;;;;;;4.83;4.33;;;;;;;;;;5075434;28;20454;-70
2022/06/09 04:59:07;;;;;;;8.30;3.70;;;;;;;;;;5075180;28;20460;-70
2022/06/09 05:01:34;;;;;;;3.70;3.20;;;;;;;;;;5075385;28;20468;-70
2022/06/09 05:04:02;;;;;;;4.43;3.77;;;;;;;;;;5075046;28;20484;-70
2022/06/09 05:06:30;;;;;;;7.47;3.83;;;;;;;;;;5075198;28;20460;-70
2022/06/09 05:08:57;;;;;;;4.97;4.30;;;;;;;;;;5075105;28;20830;-70
2022/06/09 05:11:25;;;;;;;3.93;3.17;;;;;;;;;;5074889;28;20475;-70
2022/06/09 05:13:52;;;;;;;3.87;3.47;;;;;;;;;;5074840;28;20443;-70
2022/06/09 05:16:21;;;;;;;6.70;3.50;;;;;;;;;;5074836;28;20944;-70
2022/06/09 05:18:49;;;;;;;5.17;3.57;;;;;;;;;;5075100;28;20944;-70
2022/06/09 05:21:16;;;;;;;10.03;4.00;;;;;;;;;;5074599;28;21007;-70
2022/06/09 05:23:43;;;;;;;4.47;3.57;;;;;;;;;;5074736;28;20533;-70
2022/06/09 05:26:10;;;;;;;5.70;3.27;;;;;;;;;;5074559;28;20447;-70
2022/06/09 05:28:38;;;;;;;8.00;3.70;;;;;;;;;;5074664;28;20448;-70
2022/06/09 05:31:05;;;;;;;12.50;4.33;;;;;;;;;;5074448;28;20472;-70
2022/06/09 05:33:33;;;;;;;3.47;2.90;;;;;;;;;;5074408;28;20459;-70
2022/06/09 05:36:00;;;;;;;9.40;3.80;;;;;;;;;;5074595;28;20464;-70
2022/06/09 05:46:42;;;;;;;3.60;3.20;;;;;;;;;;5074385;28;20947;-70
2022/06/09 05:49:10;;;;;;;3.73;3.20;;;;;;;;;;5074170;28;20863;-70
2022/06/09 05:51:38;;;;;;;3.73;3.33;;;;;;;;;;5073713;28;20474;-70
2022/06/09 05:54:05;;;;;;;7.33;3.00;;;;;;;;;;5073829;28;20455;-70
2022/06/09 05:56:32;;;;;;;4.27;3.87;;;;;;;;;;5074112;28;20463;-70
2022/06/09 05:59:00;;;;;;;3.77;3.37;;;;;;;;;;5074116;28;20455;-70
2022/06/09 06:01:27;;;;;;;4.23;3.20;;;;;;;;;;5073934;28;21057;-70
2022/06/09 06:03:54;;;;;;;6.90;3.30;;;;;;;;;;5073693;28;20521;-70
2022/06/09 06:06:35;;;;;;;4.70;3.73;;;;;;;;;;5073837;28;20499;-70
2022/06/09 06:09:02;;;;;;;4.97;3.17;;;;;;;;;;5074031;28;20463;-69
2022/06/09 06:11:29;;;;;;;6.53;3.30;;;;;;;;;;5073697;28;20471;-70
2022/06/09 06:13:57;;;;;;;5.93;2.93;;;;;;;;;;5073639;28;20455;-70
2022/06/09 06:16:24;;;;;;;4.80;3.43;;;;;;;;;;5073726;28;20987;-70
2022/06/09 06:18:51;;;;;;;4.40;4.00;;;;;;;;;;5073663;28;20447;-69
2022/06/09 06:21:18;;;;;;;3.47;3.17;;;;;;;;;;5073315;28;20477;-70
2022/06/09 06:23:47;;;;;;;4.13;3.50;;;;;;;;;;5073364;28;20491;-70
2022/06/09 06:26:14;;;;;;;3.27;2.80;;;;;;;;;;5073481;28;20452;-70
2022/06/09 06:28:41;;;;;;;8.73;4.13;;;;;;;;;;5073584;28;20505;-70
2022/06/09 06:31:09;;;;;;;4.13;3.47;;;;;;;;;;5073445;28;20478;-70
2022/06/09 06:33:36;;;;;;;5.20;4.10;;;;;;;;;;5073242;28;20448;-70
2022/06/09 06:36:03;;;;;;;5.03;4.63;;;;;;;;;;5073110;28;20471;-70
2022/06/09 06:38:30;;;;;;;4.40;4.00;;;;;;;;;;5073409;28;20451;-70
2022/06/09 06:40:59;;;;;;;4.10;3.70;;;;;;;;;;5073237;28;20472;-70
2022/06/09 06:43:26;;;;;;;4.30;4.00;;;;;;;;;;5073058;28;20483;-70
2022/06/09 06:45:53;;;;;;;5.80;3.53;;;;;;;;;;5073128;28;20460;-69
2022/06/09 06:48:21;;;;;;;5.40;3.90;;;;;;;;;;5073222;28;20456;-69
2022/06/09 06:50:48;;;;;;;4.03;3.60;;;;;;;;;;5073034;28;20472;-70
2022/06/09 06:53:15;;;;;;;4.53;3.80;;;;;;;;;;5071975;28;20925;-70
2022/06/09 06:55:42;;;;;;;4.90;4.40;;;;;;;;;;5073165;28;20454;-70
2022/06/09 06:58:11;;;;;;;5.87;5.10;;;;;;;;;;5073026;28;20505;-70
2022/06/09 07:00:38;;;;;;;5.40;4.87;;;;;;;;;;5073138;28;20472;-70
2022/06/09 07:03:07;;;;;;;4.67;4.27;;;;;;;;;;5072954;28;20848;-70
2022/06/09 07:05:34;;;;;;;6.07;4.70;;;;;;;;;;5072995;28;20458;-70
2022/06/09 07:08:03;;;;;;;6.60;4.00;;;;;;;;;;5073138;28;20444;-70
2022/06/09 07:10:31;;;;;;;8.30;4.37;;;;;;;;;;5073014;28;20883;-70
2022/06/09 07:12:58;;;;;;;5.67;4.20;;;;;;;;;;5072923;28;20491;-70
2022/06/09 07:15:26;;;;;;;12.70;5.40;;;;;;;;;;5072640;28;20448;-70
2022/06/09 07:17:54;;;;;;;5.13;4.73;;;;;;;;;;5072957;28;20451;-70
2022/06/09 07:20:21;;;;;;;5.70;5.20;;;;;;;;;;5072709;28;20557;-70
2022/06/09 07:22:48;;;;;;;5.30;4.80;;;;;;;;;;5072875;28;20544;-70
2022/06/09 07:25:16;;;;;;;5.80;4.53;;;;;;;;;;5072629;28;20479;-70
2022/06/09 07:27:43;;;;;;;5.40;4.90;;;;;;;;;;5072989;28;20451;-70
2022/06/09 07:30:10;;;;;;;7.40;6.60;;;;;;;;;;5072653;28;20475;-70
2022/06/09 07:32:40;;;;;;;5.20;4.80;;;;;;;;;;5072946;28;20455;-70
2022/06/09 07:35:08;;;;;;;4.87;4.47;;;;;;;;;;5072432;28;20452;-70
2022/06/09 07:37:36;;;;;;;5.57;5.07;;;;;;;;;;5072689;28;20463;-70
2022/06/09 07:40:04;;;;;;;5.53;5.00;;;;;;;;;;5073016;28;20820;-70
2022/06/09 07:42:31;;;;;;;5.97;5.03;;;;;;;;;;5072766;28;20454;-70
2022/06/09 07:44:58;;;;;;;5.70;4.73;;;;;;;;;;5072449;28;20488;-70
2022/06/09 07:47:26;;;;;;;5.00;4.60;;;;;;;;;;5072694;28;20459;-70
2022/06/09 07:49:54;;;;;;;6.13;4.73;;;;;;;;;;5072622;28;20459;-70
2022/06/09 07:52:21;;;;;;;5.43;4.60;;;;;;;;;;5072257;28;20462;-70
2022/06/09 07:54:48;;;;;;;7.10;5.00;;;;;;;;;;5072404;28;20451;-70
2022/06/09 07:57:15;;;;;;;10.37;5.87;;;;;;;;;;5072340;28;20452;-70
2022/06/09 07:59:43;;;;;;;6.13;4.90;;;;;;;;;;5072630;28;20794;-70
2022/06/09 08:02:11;;;;;;;6.37;4.80;;;;;;;;;;5072537;28;20455;-70
2022/06/09 08:04:38;;;;;;;5.87;4.90;;;;;;;;;;5072794;28;20483;-70
2022/06/09 08:07:07;;;;;;;5.30;4.80;;;;;;;;;;5076215;28;20945;-70
2022/06/09 08:09:34;;;;;;;5.37;4.87;;;;;;;;;;5076078;28;20459;-70
2022/06/09 08:12:02;;;;;;;8.57;5.50;;;;;;;;;;5076002;28;20475;-70
2022/06/09 08:14:29;;;;;;;6.33;5.73;;;;;;;;;;5075898;28;20444;-70
2022/06/09 08:16:56;;;;;;;7.30;6.60;;;;;;;;;;5075936;28;20454;-70
2022/06/09 08:19:23;;;;;;;5.93;5.30;;;;;;;;;;5076116;28;20455;-70
2022/06/09 08:21:51;;;;;;;9.03;4.97;;;;;;;;;;5075785;28;20479;-70
2022/06/09 08:24:19;;;;;;;7.43;5.30;;;;;;;;;;5075512;28;20483;-70
2022/06/09 08:26:47;;;;;;;7.93;5.23;;;;;;;;;;5075847;28;20483;-70
2022/06/09 08:29:15;;;;;;;6.63;5.37;;;;;;;;;;5075736;28;20934;-70
2022/06/09 08:31:43;;;;;;;5.27;4.60;;;;;;;;;;5075930;28;20981;-70
2022/06/09 08:34:11;;;;;;;5.07;4.03;;;;;;;;;;5075535;28;20819;-70
2022/06/09 08:36:38;;;;;;;5.47;5.00;;;;;;;;;;5075563;28;20463;-70
2022/06/09 08:39:05;;;;;;;7.50;4.63;;;;;;;;;;5075575;28;20460;-70
2022/06/09 08:41:40;;;;;;;8.00;5.10;;;;;;;;;;5075809;28;20996;-70
2022/06/09 08:44:11;;;;;;;6.13;5.50;;;;;;;;;;5075341;28;20865;-70
2022/06/09 08:46:44;;;;;;;6.67;5.37;;;;;;;;;;5075495;28;20455;-70
2022/06/09 08:49:35;;;;;;;6.43;5.17;;;;;;;;;;5075284;28;20456;-70
2022/06/09 08:52:04;;;;;;;5.70;4.87;;;;;;;;;;5064696;28;20993;-70
2022/06/09 08:54:33;;;;;;;6.00;4.60;;;;;;;;;;5075301;28;20451;-70
2022/06/09 08:57:17;;;;;;;5.57;4.63;;;;;;;;;;5075249;28;20542;-69
2022/06/09 08:59:44;;;;;;;6.03;5.43;;;;;;;;;;5075217;28;20443;-70
2022/06/09 09:02:19;;;;;;;7.13;5.50;;;;;;;;;;5075090;28;20447;-70
2022/06/09 09:04:50;;;;;;;6.30;5.30;;;;;;;;;;5074882;28;20490;-70
2022/06/09 09:07:20;;;;;;;7.70;4.27;;;;;;;;;;5075121;28;20455;-70
2022/06/09 09:09:48;;;;;;;4.80;4.40;;;;;;;;;;5074996;28;20835;-70
2022/06/09 09:12:20;;;;;;;5.67;5.23;;;;;;;;;;5074871;28;20538;-70
2022/06/09 09:14:48;;;;;;;5.17;4.60;;;;;;;;;;5074893;28;20455;-70
2022/06/09 09:17:19;;;;;;;5.00;4.60;;;;;;;;;;5074065;28;20542;-70
2022/06/09 09:19:52;;;;;;;6.07;4.97;;;;;;;;;;5074866;28;20455;-70
2022/06/09 09:22:25;;;;;;;5.63;5.13;;;;;;;;;;5074634;28;20452;-70
2022/06/09 09:25:08;;;;;;;6.97;6.37;;;;;;;;;;5074501;28;20483;-70
2022/06/09 09:27:41;;;;;;;8.70;4.70;;;;;;;;;;5074844;28;20456;-70
2022/06/09 09:30:14;;;;;;;7.10;6.40;;;;;;;;;;5074705;28;20475;-70
2022/06/09 09:32:43;;;;;;;5.70;4.53;;;;;;;;;;5074513;28;20456;-70
2022/06/09 09:35:15;;;;;;;9.83;6.00;;;;;;;;;;5074441;28;20443;-70
2022/06/09 09:37:46;;;;;;;4.97;4.43;;;;;;;;;;5074425;28;20875;-70
2022/06/09 09:40:22;;;;;;;5.70;5.20;;;;;;;;;;5074353;28;20482;-70
2022/06/09 09:42:52;;;;;;;8.77;4.77;;;;;;;;;;5074548;28;20447;-70
2022/06/09 09:45:20;;;;;;;10.93;5.40;;;;;;;;;;5073942;28;20491;-70
2022/06/09 09:47:49;;;;;;;5.50;5.00;;;;;;;;;;5074328;28;20451;-70
2022/06/09 09:50:27;;;;;;;12.67;6.00;;;;;;;;;;5074122;28;20467;-70
2022/06/09 09:52:56;;;;;;;6.07;5.53;;;;;;;;;;5074328;28;20455;-70
2022/06/09 09:55:26;;;;;;;5.10;4.60;;;;;;;;;;5073954;28;20448;-70
2022/06/09 09:58:09;;;;;;;6.17;5.20;;;;;;;;;;5074134;28;20455;-70
2022/06/09 10:00:36;;;;;;;7.03;4.83;;;;;;;;;;5074047;28;20988;-70
2022/06/09 10:08:39;;;;;;;7.93;5.27;;;;;;;;;;5074031;28;20427;-70
2022/06/09 10:13:52;;;;;;;4.80;4.40;;;;;;;;;;5073257;28;21006;-70
2022/06/09 10:16:20;;;;;;;6.00;4.50;;;;;;;;;;5073667;28;20451;-70
2022/06/09 10:18:54;;;;;;;5.53;5.03;;;;;;;;;;5073610;28;20543;-70
2022/06/09 10:21:21;;;;;;;9.00;7.57;;;;;;;;;;5073614;28;20535;-70
2022/06/09 10:23:52;;;;;;;10.30;6.30;;;;;;;;;;5073477;28;20451;-70
2022/06/09 10:26:20;;;;;;;6.40;5.80;;;;;;;;;;5073603;28;20583;-70
2022/06/09 10:28:53;;;;;;;15.13;6.57;;;;;;;;;;5073805;28;20933;-70
2022/06/09 10:31:27;;;;;;;6.23;5.73;;;;;;;;;;5073414;28;20486;-71
2022/06/09 10:33:56;;;;;;;6.93;5.10;;;;;;;;;;5073724;28;20452;-71
2022/06/09 10:36:25;;;;;;;10.23;5.00;;;;;;;;;;5073371;28;20471;-70
2022/06/09 10:38:55;;;;;;;7.60;6.47;;;;;;;;;;5073761;28;20495;-70
2022/06/09 10:41:24;;;;;;;11.70;6.70;;;;;;;;;;5073278;28;20467;-70
2022/06/09 10:43:56;;;;;;;7.27;6.50;;;;;;;;;;5073166;28;20467;-70
2022/06/09 10:46:30;;;;;;;9.00;6.17;;;;;;;;;;5073571;28;20462;-70
2022/06/09 10:57:24;;;;;;;7.10;6.27;;;;;;;;;;5073006;28;20426;-70
2022/06/09 10:59:54;;;;;;;6.93;5.80;;;;;;;;;;5072875;28;20458;-70
2022/06/09 11:02:24;;;;;;;5.83;5.33;;;;;;;;;;5072756;28;20459;-70
2022/06/09 11:04:52;;;;;;;5.57;4.07;;;;;;;;;;5072695;28;20495;-70
2022/06/09 11:07:31;;;;;;;3.23;2.83;;;;;;;;;;5072871;28;20459;-69
2022/06/09 11:10:03;;;;;;;2.87;2.57;;;;;;;;;;5073077;28;20461;-71
2022/06/09 11:12:34;;;;;;;2.33;2.13;;;;;;;;;;5073089;28;20443;-70
2022/06/09 11:15:10;;;;;;;6.27;2.50;;;;;;;;;;5072507;28;20444;-70
2022/06/09 11:17:47;;;;;;;3.03;2.73;;;;;;;;;;5072990;28;20466;-70
2022/06/09 11:20:25;;;;;;;2.97;2.57;;;;;;;;;;5072789;28;20485;-70
2022/06/09 11:22:58;;;;;;;3.37;3.07;;;;;;;;;;5072879;28;20454;-70
2022/06/09 11:25:39;;;;;;;2.93;2.60;;;;;;;;;;5072556;28;20484;-70
2022/06/09 11:28:20;;;;;;;3.50;2.93;;;;;;;;;;5072812;28;20932;-70
2022/06/09 11:30:55;;;;;;;3.90;3.50;;;;;;;;;;5072844;28;20967;-70
2022/06/09 11:33:33;;;;;;;7.17;3.97;;;;;;;;;;5072840;28;20451;-70
2022/06/09 11:36:03;;;;;;;4.30;3.57;;;;;;;;;;5072637;28;20462;-70
2022/06/09 11:38:38;;;;;;;9.40;4.20;;;;;;;;;;5072820;28;20458;-70
2022/06/09 11:41:12;;;;;;;4.30;3.80;;;;;;;;;;5075674;28;20833;-70
2022/06/09 11:43:45;;;;;;;4.47;4.03;;;;;;;;;;5076559;28;20451;-70
2022/06/09 11:46:16;;;;;;;7.53;3.60;;;;;;;;;;5076373;28;20859;-70
2022/06/09 11:48:46;;;;;;;5.80;4.37;;;;;;;;;;5076640;28;20948;-70
2022/06/09 11:51:16;;;;;;;11.03;4.70;;;;;;;;;;5076350;28;20478;-70
2022/06/09 11:53:47;;;;;;;8.20;5.50;;;;;;;;;;5076428;28;20448;-71
2022/06/09 11:56:36;;;;;;;7.90;4.40;;;;;;;;;;5076471;28;21015;-70
2022/06/09 11:59:05;;;;;;;5.80;4.20;;;;;;;;;;5076558;28;20513;-70
2022/06/09 12:01:44;;;;;;;10.67;4.30;;;;;;;;;;5076667;28;20489;-70
2022/06/09 12:04:23;;;;;;;6.60;5.20;;;;;;;;;;5076487;28;20802;-70
2022/06/09 12:07:07;;;;;;;6.23;4.20;;;;;;;;;;5076232;28;20447;-70
2022/06/09 12:09:41;;;;;;;6.57;4.20;;;;;;;;;;5076428;28;20452;-70
2022/06/09 12:12:26;;;;;;;6.70;5.10;;;;;;;;;;5076332;28;20475;-70
2022/06/09 12:15:09;;;;;;;5.90;4.80;;;;;;;;;;5076102;28;20447;-70
2022/06/09 12:17:36;;;;;;;8.37;5.00;;;;;;;;;;5076163;28;20804;-70
2022/06/09 12:20:08;;;;;;;4.50;3.40;;;;;;;;;;5076058;28;20455;-70
2022/06/09 12:22:48;;;;;;;6.93;5.00;;;;;;;;;;5076041;28;20455;-70
2022/06/09 12:25:27;;;;;;;10.77;4.20;;;;;;;;;;5075736;28;20483;-70
2022/06/09 12:27:55;;;;;;;4.73;3.20;;;;;;;;;;5075857;28;20554;-70
2022/06/09 12:30:25;;;;;;;9.37;2.90;;;;;;;;;;5075747;28;20471;-70
2022/06/09 12:32:54;;;;;;;5.67;3.40;;;;;;;;;;5076157;28;20447;-70
2022/06/09 12:35:25;;;;;;;7.50;3.17;;;;;;;;;;5075519;28;20483;-70
2022/06/09 12:37:58;;;;;;;11.67;3.80;;;;;;;;;;5075829;28;20452;-70
2022/06/09 12:40:27;;;;;;;3.20;2.90;;;;;;;;;;5075597;28;20485;-70
2022/06/09 12:42:56;;;;;;;4.33;2.97;;;;;;;;;;5075706;28;20463;-70
2022/06/09 12:45:26;;;;;;;5.70;3.00;;;;;;;;;;5075210;28;20490;-70
2022/06/09 12:47:54;;;;;;;3.67;2.70;;;;;;;;;;5075631;28;20470;-70
2022/06/09 12:50:24;;;;;;;5.27;3.10;;;;;;;;;;5075289;28;20474;-70
2022/06/09 12:52:54;;;;;;;3.83;2.30;;;;;;;;;;5074010;28;20933;-70
2022/06/09 12:55:24;;;;;;;4.27;2.93;;;;;;;;;;5075252;28;20451;-70
2022/06/09 12:57:52;;;;;;;3.40;2.73;;;;;;;;;;5075394;28;20451;-70
2022/06/09 13:00:23;;;;;;;4.20;2.80;;;;;;;;;;5075220;28;20471;-70
2022/06/09 13:02:50;;;;;;;3.30;2.43;;;;;;;;;;5075345;28;20827;-70
2022/06/09 13:05:20;;;;;;;4.83;2.30;;;;;;;;;;5075343;28;20972;-70
2022/06/09 13:07:52;;;;;;;2.93;2.63;;;;;;;;;;5075224;28;20463;-70
2022/06/09 13:10:21;;;;;;;3.50;2.40;;;;;;;;;;5075515;28;20472;-70
2022/06/09 13:12:52;;;;;;;4.97;3.03;;;;;;;;;;5075148;28;20451;-70
2022/06/09 13:15:24;;;;;;;2.50;2.30;;;;;;;;;;5074867;28;20468;-70
2022/06/09 13:17:51;;;;;;;4.33;2.80;;;;;;;;;;5075005;28;20531;-70
2022/06/09 13:20:19;;;;;;;3.60;2.20;;;;;;;;;;5074656;28;20973;-70
2022/06/09 13:22:47;;;;;;;2.87;2.30;;;;;;;;;;5074819;28;20451;-70
2022/06/09 13:25:17;;;;;;;2.10;1.80;;;;;;;;;;5074476;28;20493;-70
2022/06/09 13:27:45;;;;;;;3.10;2.80;;;;;;;;;;5074749;28;20452;-70
2022/06/09 13:30:30;;;;;;;6.33;4.37;;;;;;;;;;5074685;28;20985;-70
2022/06/09 13:32:57;;;;;;;4.63;2.57;;;;;;;;;;5074635;28;20463;-70
2022/06/09 13:35:31;;;;;;;4.53;2.53;;;;;;;;;;5074272;28;20447;-70
2022/06/09 13:38:02;;;;;;;4.87;3.00;;;;;;;;;;5074694;28;20452;-70
2022/06/09 13:40:40;;;;;;;5.67;3.10;;;;;;;;;;5074568;28;20475;-70
2022/06/09 13:43:16;;;;;;;6.23;4.47;;;;;;;;;;5074501;28;20812;-70
2022/06/09 13:45:49;;;;;;;5.53;3.63;;;;;;;;;;5074191;28;20483;-70
2022/06/09 13:48:18;;;;;;;7.10;3.80;;;;;;;;;;5074269;28;20474;-70
2022/06/09 13:50:47;;;;;;;3.90;3.30;;;;;;;;;;5074396;28;20470;-70
2022/06/09 13:53:17;;;;;;;3.40;2.50;;;;;;;;;;5074078;28;20448;-70
2022/06/09 13:55:45;;;;;;;7.27;3.73;;;;;;;;;;5074098;28;20474;-70
2022/06/09 13:58:12;;;;;;;5.70;3.60;;;;;;;;;;5074107;28;20979;-70
2022/06/09 14:00:41;;;;;;;3.00;2.03;;;;;;;;;;5074252;28;20476;-70
2022/06/09 14:03:09;;;;;;;3.37;2.00;;;;;;;;;;5073656;28;20448;-70
2022/06/09 14:05:39;;;;;;;2.00;1.80;;;;;;;;;;5073570;28;20494;-70
2022/06/09 14:08:07;;;;;;;2.50;2.20;;;;;;;;;;5073786;28;20451;-70
2022/06/09 14:10:34;;;;;;;4.53;2.03;;;;;;;;;;5073763;28;20471;-70
2022/06/09 14:13:03;;;;;;;2.70;2.50;;;;;;;;;;5073827;28;20452;-70
2022/06/09 14:15:31;;;;;;;4.70;2.60;;;;;;;;;;5073737;28;20569;-70
2022/06/09 14:17:58;;;;;;;5.13;2.40;;;;;;;;;;5073997;28;20477;-70
2022/06/09 14:20:26;;;;;;;1.93;1.73;;;;;;;;;;5073507;28;20848;-70
2022/06/09 14:22:54;;;;;;;4.27;1.77;;;;;;;;;;5073692;28;20456;-70
2022/06/09 14:25:22;;;;;;;2.30;2.10;;;;;;;;;;5073361;28;20848;-70
2022/06/09 14:27:49;;;;;;;2.77;2.10;;;;;;;;;;5073636;28;20818;-70
2022/06/09 14:30:18;;;;;;;8.17;2.80;;;;;;;;;;5073538;28;20472;-70
2022/06/09 14:32:45;;;;;;;1.87;1.67;;;;;;;;;;5073704;28;20470;-70
2022/06/09 14:35:16;;;;;;;3.20;1.77;;;;;;;;;;5073282;28;20463;-70
2022/06/09 14:37:43;;;;;;;3.83;1.90;;;;;;;;;;5073337;28;20521;-70
2022/06/09 14:40:18;;;;;;;1.60;1.50;;;;;;;;;;5073387;28;20499;-70
2022/06/09 14:42:46;;;;;;;2.00;1.40;;;;;;;;;;5073421;28;20566;-70
2022/06/09 14:45:15;;;;;;;2.30;2.00;;;;;;;;;;5073061;28;20448;-70
2022/06/09 14:47:43;;;;;;;3.60;2.43;;;;;;;;;;5073239;28;20848;-70
2022/06/09 14:50:12;;;;;;;2.37;1.47;;;;;;;;;;5073361;28;20475;-70
2022/06/09 14:52:39;;;;;;;4.10;2.20;;;;;;;;;;5072815;28;20447;-70
2022/06/09 14:55:08;;;;;;;9.00;4.77;;;;;;;;;;5072993;28;20471;-70
2022/06/09 14:57:35;;;;;;;3.30;2.50;;;;;;;;;;5073213;28;20505;-70
2022/06/09 15:00:02;;;;;;;3.10;1.80;;;;;;;;;;5072867;28;20828;-70
2022/06/09 15:02:29;;;;;;;5.60;3.03;;;;;;;;;;5073209;28;20447;-70
2022/06/09 15:04:58;;;;;;;3.23;2.30;;;;;;;;;;5073041;28;20466;-70
2022/06/09 15:07:25;;;;;;;3.90;2.80;;;;;;;;;;5072898;28;20862;-70
2022/06/09 15:09:52;;;;;;;2.87;1.90;;;;;;;;;;5073076;28;20462;-70
2022/06/09 15:12:20;;;;;;;3.30;2.40;;;;;;;;;;5072875;28;20881;-70
2022/06/09 15:14:47;;;;;;;6.67;2.23;;;;;;;;;;5072015;28;20451;-70
2022/06/09 15:17:16;;;;;;;3.93;2.40;;;;;;;;;;5072944;28;20444;-70
2022/06/09 15:19:43;;;;;;;3.90;2.53;;;;;;;;;;5072933;28;20458;-70
2022/06/09 15:22:12;;;;;;;3.83;2.40;;;;;;;;;;5072892;28;20481;-70